Terminal Aerodrome Forecast
Issued by NWS Sioux Falls, SD

Home | Current Version | Previous Version | Text Only | Print | Product List | Glossary Off
Versions: 1 2 3 4 5 6 7 8 9 10 11 12 13 14 15 16 17 18 19 20 21 22 23 24 25

000
FTUS43 KFSD 221102 AAB
TAFFSD
TAF AMD
KFSD 221102Z 2211/2306 14004KT 1/4SM FG VV002
     FM221300 14006KT 3SM BR SKC
     FM221500 15008KT P6SM BKN250=

USA.gov is the U.S. government's official web portal to all federal, state and local government web resources and services.